Time;durP1;ratioP1;P1;durP2;ratioP2;P2;SDS_P1;SDS_P2;PMS_P1;PMS_P2;Temp;Humidity;BMP_temperature;BMP_pressure;BME280_temperature;BME280_humidity;BME280_pressure;Samples;Min_cycle;Max_cycle;Signal;HPM_P1;HPM_P2
2024/01/30 00:01:25;;;;;;;16.45;8.02;;;4.80;99.90;;;;;;4976126;28;20106;-73
2024/01/30 00:03:51;;;;;;;15.32;7.80;;;4.80;99.90;;;;;;4976082;28;20488;-73
2024/01/30 00:06:20;;;;;;;14.40;8.20;;;4.70;99.90;;;;;;4992878;28;20077;-72
2024/01/30 00:08:48;;;;;;;15.52;7.95;;;4.70;99.90;;;;;;4995713;28;20073;-73
2024/01/30 00:11:14;;;;;;;12.40;7.35;;;4.60;99.90;;;;;;4986716;28;20026;-73
2024/01/30 00:13:40;;;;;;;15.55;9.05;;;4.60;99.90;;;;;;4975070;28;20455;-73
2024/01/30 00:16:06;;;;;;;14.98;7.75;;;4.60;99.90;;;;;;4975730;28;20027;-74
2024/01/30 00:18:32;;;;;;;12.23;6.13;;;4.50;99.90;;;;;;4975473;28;20058;-74
2024/01/30 00:20:57;;;;;;;11.82;6.13;;;4.40;99.90;;;;;;4959551;28;20399;-73
2024/01/30 00:23:23;;;;;;;11.10;6.53;;;4.40;99.90;;;;;;4957284;28;20030;-72
2024/01/30 00:25:48;;;;;;;11.43;6.40;;;4.40;99.90;;;;;;4976057;28;20035;-73
2024/01/30 00:28:14;;;;;;;10.30;6.30;;;4.30;99.90;;;;;;4975936;28;20027;-73
2024/01/30 00:30:39;;;;;;;11.52;5.80;;;4.30;99.90;;;;;;4976051;28;20007;-73
2024/01/30 00:33:05;;;;;;;12.73;6.43;;;4.20;99.90;;;;;;4974453;28;20043;-73
2024/01/30 00:35:31;;;;;;;14.23;6.78;;;4.20;99.90;;;;;;4977009;28;20027;-73
2024/01/30 00:37:57;;;;;;;13.95;6.30;;;4.20;99.90;;;;;;4975591;28;20027;-74
2024/01/30 00:40:22;;;;;;;14.95;6.45;;;4.10;99.90;;;;;;4975424;28;20026;-74
2024/01/30 00:42:48;;;;;;;14.27;6.95;;;4.10;99.90;;;;;;4976500;28;20014;-74
2024/01/30 00:45:14;;;;;;;11.60;6.80;;;4.10;99.90;;;;;;4976286;28;20053;-73
2024/01/30 00:47:40;;;;;;;13.75;7.45;;;4.10;99.90;;;;;;4976070;28;20496;-74
2024/01/30 00:50:06;;;;;;;19.05;6.85;;;4.00;99.90;;;;;;4976318;28;20031;-72
2024/01/30 00:52:32;;;;;;;13.35;6.85;;;4.00;99.90;;;;;;4975227;28;20089;-74
2024/01/30 00:54:59;;;;;;;10.68;6.93;;;4.00;99.90;;;;;;4975975;28;20030;-73
2024/01/30 00:57:24;;;;;;;15.23;6.80;;;4.00;99.90;;;;;;4976010;28;20027;-73
2024/01/30 00:59:50;;;;;;;14.10;6.78;;;4.00;99.90;;;;;;4975233;28;20131;-75
2024/01/30 01:02:17;;;;;;;12.10;6.00;;;4.00;99.90;;;;;;4977135;28;20035;-72
2024/01/30 01:04:43;;;;;;;11.90;6.22;;;4.00;99.90;;;;;;4975392;28;20046;-71
2024/01/30 01:07:08;;;;;;;12.93;6.90;;;4.00;99.90;;;;;;4974777;28;20027;-71
2024/01/30 01:09:34;;;;;;;12.10;6.43;;;4.00;99.90;;;;;;4974740;28;20118;-73
2024/01/30 01:12:00;;;;;;;12.95;6.40;;;4.00;99.90;;;;;;4974706;28;20394;-73
2024/01/30 01:14:25;;;;;;;11.48;6.13;;;4.00;99.90;;;;;;4974693;28;20035;-74
2024/01/30 01:16:51;;;;;;;12.65;7.07;;;4.00;99.90;;;;;;4975335;28;20058;-71
2024/01/30 01:19:16;;;;;;;13.65;6.63;;;4.00;99.90;;;;;;4974956;28;20027;-73
2024/01/30 01:21:42;;;;;;;15.32;8.13;;;3.90;99.90;;;;;;4974922;28;20167;-73
2024/01/30 01:24:07;;;;;;;13.48;7.50;;;3.90;99.90;;;;;;4974754;28;20030;-73
2024/01/30 01:26:33;;;;;;;11.65;7.15;;;3.90;99.90;;;;;;4974549;28;20384;-72
2024/01/30 01:28:59;;;;;;;16.08;7.85;;;3.90;99.90;;;;;;4974777;28;20034;-74
2024/01/30 01:31:25;;;;;;;12.95;7.43;;;3.90;99.90;;;;;;4974876;28;20030;-73
2024/01/30 01:33:50;;;;;;;12.00;6.78;;;3.90;99.90;;;;;;4974537;28;20073;-72
2024/01/30 01:36:16;;;;;;;19.38;7.72;;;3.90;99.90;;;;;;4972859;28;20138;-73
2024/01/30 01:38:41;;;;;;;10.63;6.13;;;3.90;99.90;;;;;;4974373;28;20054;-73
2024/01/30 01:41:07;;;;;;;12.60;7.05;;;3.90;99.90;;;;;;4974259;28;20030;-74
2024/01/30 01:43:33;;;;;;;13.57;7.10;;;3.90;99.90;;;;;;4981568;28;20105;-72
2024/01/30 01:45:59;;;;;;;11.63;6.65;;;3.90;99.90;;;;;;4975546;28;20031;-72
2024/01/30 01:48:25;;;;;;;13.00;7.93;;;3.90;99.90;;;;;;4974215;28;20094;-72
2024/01/30 01:50:52;;;;;;;12.40;6.80;;;3.90;99.90;;;;;;4973989;28;20083;-72
2024/01/30 01:53:18;;;;;;;11.68;6.65;;;3.90;99.90;;;;;;4974303;28;20038;-72
2024/01/30 01:55:45;;;;;;;11.57;6.80;;;3.90;99.90;;;;;;4974050;28;20027;-72
2024/01/30 01:58:12;;;;;;;14.38;7.03;;;3.90;99.90;;;;;;4973879;28;20019;-72
2024/01/30 02:00:40;;;;;;;12.27;6.70;;;4.00;99.90;;;;;;4959435;28;20027;-73
2024/01/30 02:03:08;;;;;;;11.10;6.60;;;4.00;99.90;;;;;;4975373;28;20065;-74
2024/01/30 02:05:34;;;;;;;10.98;6.25;;;4.00;99.90;;;;;;4977839;28;20035;-72
2024/01/30 02:07:59;;;;;;;10.05;6.35;;;4.00;99.90;;;;;;4976339;28;20118;-72
2024/01/30 02:10:25;;;;;;;11.20;6.10;;;4.00;99.90;;;;;;4978417;28;20113;-71
2024/01/30 02:12:50;;;;;;;11.35;6.80;;;4.00;99.90;;;;;;4977882;28;20023;-72
2024/01/30 02:15:16;;;;;;;12.60;6.82;;;4.00;99.90;;;;;;4977872;28;20031;-72
2024/01/30 02:17:42;;;;;;;10.45;6.18;;;4.00;99.90;;;;;;4977827;28;20418;-72
2024/01/30 02:20:08;;;;;;;14.05;7.25;;;4.00;99.90;;;;;;4977705;28;20042;-71
2024/01/30 02:22:36;;;;;;;9.68;5.88;;;4.00;99.90;;;;;;4977847;28;20019;-72
2024/01/30 02:25:02;;;;;;;10.63;6.22;;;4.00;99.90;;;;;;4978098;28;20446;-71
2024/01/30 02:27:27;;;;;;;13.35;6.00;;;4.00;99.90;;;;;;4977422;28;20066;-72
2024/01/30 02:29:53;;;;;;;10.65;6.50;;;4.00;99.90;;;;;;4977742;28;20637;-72
2024/01/30 02:32:19;;;;;;;10.65;5.97;;;4.00;99.90;;;;;;4968072;28;20026;-72
2024/01/30 02:34:44;;;;;;;10.70;5.05;;;4.00;99.90;;;;;;4970831;28;20031;-73
2024/01/30 02:37:10;;;;;;;10.43;5.60;;;4.00;99.90;;;;;;4969099;28;20402;-73
2024/01/30 02:39:35;;;;;;;11.00;5.45;;;4.00;99.90;;;;;;4958155;28;20386;-73
2024/01/30 02:42:01;;;;;;;10.18;5.95;;;4.00;99.90;;;;;;4958280;28;20034;-73
2024/01/30 02:44:27;;;;;;;11.57;6.13;;;4.00;99.90;;;;;;4957895;28;20027;-73
2024/01/30 02:46:54;;;;;;;11.25;6.13;;;3.90;99.90;;;;;;4957967;28;20059;-73
2024/01/30 02:49:19;;;;;;;13.32;6.05;;;3.90;99.90;;;;;;4957704;28;20023;-73
2024/01/30 02:51:45;;;;;;;12.65;5.85;;;3.90;99.90;;;;;;4977321;28;20025;-74
2024/01/30 02:54:11;;;;;;;14.48;6.57;;;3.90;99.90;;;;;;4977192;28;20019;-72
2024/01/30 02:56:36;;;;;;;8.43;5.47;;;3.80;99.90;;;;;;4976805;28;20031;-72
2024/01/30 02:59:02;;;;;;;10.98;5.82;;;3.70;99.90;;;;;;4977059;28;20222;-73
2024/01/30 03:01:27;;;;;;;11.15;6.50;;;3.70;99.90;;;;;;4976908;28;20037;-74
2024/01/30 03:03:53;;;;;;;12.95;6.32;;;3.60;99.90;;;;;;4977218;28;20031;-72
2024/01/30 03:06:20;;;;;;;13.48;6.00;;;3.60;99.90;;;;;;4976657;28;20034;-72
2024/01/30 03:08:45;;;;;;;13.35;6.65;;;3.50;99.90;;;;;;4977246;28;20023;-72
2024/01/30 03:11:11;;;;;;;13.65;6.55;;;3.50;99.90;;;;;;4976674;28;20375;-72
2024/01/30 03:13:36;;;;;;;12.88;6.78;;;3.40;99.90;;;;;;4976240;28;20031;-72
2024/01/30 03:16:02;;;;;;;13.43;6.25;;;3.40;99.90;;;;;;4967596;28;20031;-72
2024/01/30 03:18:28;;;;;;;17.65;7.50;;;3.40;99.90;;;;;;4968945;28;20019;-72
2024/01/30 03:20:53;;;;;;;14.20;7.60;;;3.30;99.90;;;;;;4962787;28;20031;-71
2024/01/30 03:23:19;;;;;;;12.40;6.85;;;3.30;99.90;;;;;;4974508;28;20025;-72
2024/01/30 03:25:45;;;;;;;12.60;6.55;;;3.30;99.90;;;;;;4957289;28;20034;-72
2024/01/30 03:28:10;;;;;;;13.52;6.05;;;3.30;99.90;;;;;;4957002;28;20027;-72
2024/01/30 03:30:36;;;;;;;14.55;6.60;;;3.20;99.90;;;;;;4961969;28;20031;-72
2024/01/30 03:33:02;;;;;;;11.10;6.10;;;3.20;99.90;;;;;;4976453;28;20038;-72
2024/01/30 03:35:28;;;;;;;13.10;6.32;;;3.20;99.90;;;;;;4976258;28;20026;-72
2024/01/30 03:37:53;;;;;;;12.48;6.38;;;3.20;99.90;;;;;;4976265;28;20029;-73
2024/01/30 03:40:19;;;;;;;12.80;6.35;;;3.10;99.90;;;;;;4976309;28;20457;-73
2024/01/30 03:42:45;;;;;;;11.80;6.15;;;3.10;99.90;;;;;;4976242;28;20027;-72
2024/01/30 03:45:10;;;;;;;11.07;5.95;;;3.10;99.90;;;;;;4976252;28;20041;-72
2024/01/30 03:47:36;;;;;;;13.75;7.00;;;3.00;99.90;;;;;;4976054;28;20063;-72
2024/01/30 03:50:02;;;;;;;10.98;6.25;;;3.00;99.90;;;;;;4976196;28;20034;-72
2024/01/30 03:52:27;;;;;;;12.13;6.05;;;2.90;99.90;;;;;;4976187;28;20390;-72
2024/01/30 03:54:53;;;;;;;12.85;7.05;;;2.90;99.90;;;;;;4975854;28;20533;-72
2024/01/30 03:57:18;;;;;;;12.43;7.30;;;2.90;99.90;;;;;;4976081;28;20078;-72
2024/01/30 03:59:44;;;;;;;13.07;6.50;;;2.80;99.90;;;;;;4976159;28;20030;-72
2024/01/30 04:02:11;;;;;;;10.70;6.47;;;2.80;99.90;;;;;;4975620;28;20054;-72
2024/01/30 04:04:37;;;;;;;12.07;6.35;;;2.80;99.90;;;;;;4976127;28;20393;-73
2024/01/30 04:07:02;;;;;;;12.23;6.28;;;2.80;99.90;;;;;;4976187;28;20101;-72
2024/01/30 04:09:28;;;;;;;12.00;6.38;;;2.80;99.90;;;;;;4975940;28;20082;-72
2024/01/30 04:11:54;;;;;;;14.57;6.63;;;2.80;99.90;;;;;;4975960;28;20027;-73
2024/01/30 04:14:19;;;;;;;12.18;6.22;;;2.80;99.90;;;;;;4975402;28;20081;-70
2024/01/30 04:16:45;;;;;;;12.45;6.28;;;2.70;99.90;;;;;;4975326;28;20389;-72
2024/01/30 04:19:11;;;;;;;12.00;6.75;;;2.70;99.90;;;;;;4975440;28;20089;-72
2024/01/30 04:21:36;;;;;;;13.80;7.90;;;2.70;99.90;;;;;;4975677;28;20023;-72
2024/01/30 04:24:02;;;;;;;10.48;5.93;;;2.70;99.90;;;;;;4982289;28;20485;-71
2024/01/30 04:26:27;;;;;;;12.73;6.70;;;2.70;99.90;;;;;;4980665;28;20402;-72
2024/01/30 04:28:53;;;;;;;11.65;6.28;;;2.70;99.90;;;;;;4995431;28;20061;-72
2024/01/30 04:31:19;;;;;;;9.63;6.07;;;2.60;99.90;;;;;;4975487;28;20031;-71
2024/01/30 04:33:44;;;;;;;11.77;6.28;;;2.60;99.90;;;;;;4955960;28;20039;-71
2024/01/30 04:36:10;;;;;;;12.95;5.97;;;2.60;99.90;;;;;;4955818;28;20023;-72
2024/01/30 04:38:36;;;;;;;11.40;6.55;;;2.60;99.90;;;;;;4956319;28;20106;-73
2024/01/30 04:41:01;;;;;;;11.60;6.10;;;2.50;99.90;;;;;;4956218;28;20031;-73
2024/01/30 04:43:27;;;;;;;11.80;6.70;;;2.60;99.90;;;;;;4973731;28;20030;-72
2024/01/30 04:45:52;;;;;;;11.45;6.22;;;2.50;99.90;;;;;;4975529;28;20101;-73
2024/01/30 04:48:18;;;;;;;10.95;6.53;;;2.50;99.90;;;;;;4975750;28;20111;-72
2024/01/30 04:50:44;;;;;;;11.70;7.03;;;2.50;99.90;;;;;;4975050;28;20383;-73
2024/01/30 04:53:09;;;;;;;13.32;6.57;;;2.50;99.90;;;;;;4975153;28;20153;-73
2024/01/30 04:55:36;;;;;;;11.02;6.88;;;2.50;99.90;;;;;;4975006;28;20027;-73
2024/01/30 04:58:01;;;;;;;10.82;6.22;;;2.50;99.90;;;;;;4975323;28;20019;-72
2024/01/30 05:00:27;;;;;;;10.95;5.45;;;2.60;99.90;;;;;;4975302;28;20050;-74
2024/01/30 05:02:54;;;;;;;10.65;5.32;;;2.50;99.90;;;;;;4974991;28;20118;-72
2024/01/30 05:05:21;;;;;;;8.27;4.45;;;2.50;99.90;;;;;;4976072;28;20038;-71
2024/01/30 05:07:47;;;;;;;11.52;5.13;;;2.50;99.90;;;;;;4994388;28;20069;-72
2024/01/30 05:10:13;;;;;;;10.52;5.32;;;2.50;99.90;;;;;;4994522;28;20034;-72
2024/01/30 05:12:39;;;;;;;10.43;5.00;;;2.50;99.90;;;;;;4994108;28;20023;-72
2024/01/30 05:15:05;;;;;;;8.77;4.55;;;2.50;99.90;;;;;;4978712;28;20113;-73
2024/01/30 05:17:30;;;;;;;11.30;5.60;;;2.50;99.90;;;;;;4974959;28;20469;-71
2024/01/30 05:19:56;;;;;;;9.48;4.90;;;2.50;99.90;;;;;;4970366;28;20126;-72
2024/01/30 05:22:22;;;;;;;8.02;4.65;;;2.50;99.90;;;;;;4956527;28;20023;-73
2024/01/30 05:24:47;;;;;;;9.40;4.80;;;2.50;99.90;;;;;;4969884;28;20445;-73
2024/01/30 05:27:15;;;;;;;9.98;5.57;;;2.60;99.90;;;;;;4974033;28;20197;-73
2024/01/30 05:29:41;;;;;;;10.32;4.95;;;2.60;99.90;;;;;;4974666;28;20087;-72
2024/01/30 05:32:06;;;;;;;10.35;4.97;;;2.60;99.90;;;;;;4974507;28;20797;-72
2024/01/30 05:34:32;;;;;;;8.88;4.75;;;2.60;99.90;;;;;;4974739;28;20035;-73
2024/01/30 05:36:58;;;;;;;9.30;4.60;;;2.60;99.90;;;;;;4974116;28;20022;-72
2024/01/30 05:39:24;;;;;;;10.50;5.40;;;2.50;99.90;;;;;;4976772;28;20028;-72
2024/01/30 05:41:49;;;;;;;12.48;5.20;;;2.50;99.90;;;;;;4974637;28;20019;-72
2024/01/30 05:44:15;;;;;;;10.43;5.07;;;2.50;99.90;;;;;;4974252;28;20097;-71
2024/01/30 05:46:40;;;;;;;11.70;6.03;;;2.50;99.90;;;;;;4974328;28;20060;-73
2024/01/30 05:49:06;;;;;;;9.38;4.75;;;2.50;99.90;;;;;;4974129;28;20027;-72
2024/01/30 05:51:32;;;;;;;10.93;5.65;;;2.50;99.90;;;;;;4974412;28;20089;-72
2024/01/30 05:53:57;;;;;;;10.60;5.70;;;2.50;99.90;;;;;;4973161;28;20027;-72
2024/01/30 05:56:23;;;;;;;10.82;5.53;;;2.50;99.90;;;;;;4974339;28;20498;-73
2024/01/30 05:58:50;;;;;;;10.95;6.00;;;2.40;99.90;;;;;;4979846;28;20023;-72
2024/01/30 06:01:16;;;;;;;12.15;6.10;;;2.40;99.90;;;;;;4974073;28;20034;-71
2024/01/30 06:03:43;;;;;;;13.90;6.53;;;2.40;99.90;;;;;;4974466;28;20030;-73
2024/01/30 06:06:09;;;;;;;11.23;6.25;;;2.40;99.90;;;;;;4974379;28;20030;-72
2024/01/30 06:08:34;;;;;;;12.95;5.95;;;2.40;99.90;;;;;;4974067;28;20030;-72
2024/01/30 06:11:00;;;;;;;10.93;6.15;;;2.30;99.90;;;;;;4974706;28;20118;-72
2024/01/30 06:13:26;;;;;;;8.55;5.55;;;2.30;99.90;;;;;;4974708;28;20390;-72
2024/01/30 06:15:52;;;;;;;10.70;5.95;;;2.30;99.90;;;;;;4974178;28;20030;-71
2024/01/30 06:18:18;;;;;;;11.48;6.65;;;2.30;99.90;;;;;;4974834;28;20023;-72
2024/01/30 06:20:43;;;;;;;14.10;5.78;;;2.30;99.90;;;;;;4974600;28;20030;-71
2024/01/30 06:23:09;;;;;;;12.32;6.40;;;2.30;99.90;;;;;;4974690;28;20031;-72
2024/01/30 06:25:35;;;;;;;13.18;6.55;;;2.30;99.90;;;;;;4975959;28;20081;-72
2024/01/30 06:28:00;;;;;;;15.77;6.50;;;2.20;99.90;;;;;;4973399;28;20038;-71
2024/01/30 06:30:26;;;;;;;14.88;6.82;;;2.30;99.90;;;;;;4983027;28;20034;-73
2024/01/30 06:32:52;;;;;;;16.00;7.10;;;2.20;99.90;;;;;;4986979;28;20031;-72
2024/01/30 06:35:17;;;;;;;15.02;7.40;;;2.20;99.90;;;;;;4991088;28;20049;-73
2024/01/30 06:37:43;;;;;;;17.30;8.00;;;2.20;99.90;;;;;;4977423;28;20110;-71
2024/01/30 06:40:09;;;;;;;14.48;7.30;;;2.20;99.90;;;;;;4988415;28;20037;-72
2024/01/30 06:42:35;;;;;;;17.25;7.63;;;2.20;99.90;;;;;;4989499;28;20478;-73
2024/01/30 06:45:00;;;;;;;11.57;7.07;;;2.20;99.90;;;;;;4972892;28;20154;-73
2024/01/30 06:47:26;;;;;;;15.68;7.47;;;2.10;99.90;;;;;;4972694;28;20078;-73
2024/01/30 06:49:52;;;;;;;14.88;7.65;;;2.10;99.90;;;;;;4973000;28;20045;-74
2024/01/30 06:52:17;;;;;;;13.65;7.82;;;2.10;99.90;;;;;;4975601;28;20035;-72
2024/01/30 06:54:43;;;;;;;13.32;6.75;;;2.10;99.90;;;;;;4968851;28;20078;-72
2024/01/30 06:57:11;;;;;;;14.38;6.78;;;2.10;99.90;;;;;;4976206;28;20030;-73
2024/01/30 06:59:43;;;;;;;12.85;6.68;;;2.00;99.90;;;;;;4980429;28;20075;-72
2024/01/30 07:02:09;;;;;;;14.40;6.68;;;2.10;99.90;;;;;;4974253;28;20018;-72
2024/01/30 07:04:35;;;;;;;13.25;6.72;;;2.00;99.90;;;;;;4972935;28;20069;-72
2024/01/30 07:07:00;;;;;;;12.13;6.53;;;2.00;99.90;;;;;;4975925;28;20434;-71
2024/01/30 07:09:26;;;;;;;14.77;7.10;;;2.00;99.90;;;;;;4978096;28;20018;-70
2024/01/30 07:11:53;;;;;;;13.15;7.35;;;2.00;99.90;;;;;;4976034;28;20022;-70
2024/01/30 07:14:19;;;;;;;14.63;7.85;;;2.00;99.90;;;;;;4976037;28;20498;-71
2024/01/30 07:16:44;;;;;;;18.20;6.88;;;2.00;99.90;;;;;;4976058;28;20054;-69
2024/01/30 07:19:10;;;;;;;13.40;7.25;;;2.10;99.90;;;;;;4972866;28;20118;-72
2024/01/30 07:21:35;;;;;;;15.50;5.60;;;2.20;99.90;;;;;;4974779;28;20386;-70
2024/01/30 07:24:01;;;;;;;12.82;5.78;;;2.30;99.90;;;;;;4975789;28;20031;-71
2024/01/30 07:26:26;;;;;;;11.02;5.75;;;2.30;99.90;;;;;;4974631;28;20023;-72
2024/01/30 07:28:52;;;;;;;18.60;6.55;;;2.40;99.90;;;;;;4970558;28;20450;-72
2024/01/30 07:31:20;;;;;;;13.98;6.20;;;2.50;99.90;;;;;;4974927;28;20030;-72
2024/01/30 07:33:46;;;;;;;17.17;6.85;;;2.50;99.90;;;;;;4975371;28;20038;-72
2024/01/30 07:36:12;;;;;;;12.32;6.13;;;2.60;99.90;;;;;;4975586;28;20023;-71
2024/01/30 07:38:37;;;;;;;12.32;6.38;;;2.60;99.90;;;;;;4965979;28;20103;-70
2024/01/30 07:41:03;;;;;;;14.07;6.18;;;2.70;99.90;;;;;;4967033;28;20441;-71
2024/01/30 07:43:28;;;;;;;14.93;8.10;;;2.70;99.90;;;;;;4975539;28;20023;-71
2024/01/30 07:45:54;;;;;;;18.45;6.47;;;2.80;99.90;;;;;;4982449;28;20022;-70
2024/01/30 07:48:19;;;;;;;13.43;6.03;;;2.80;99.90;;;;;;4975529;28;20394;-72
2024/01/30 07:50:45;;;;;;;15.30;6.38;;;2.80;99.90;;;;;;4975665;28;20030;-71
2024/01/30 07:53:11;;;;;;;12.63;5.90;;;2.90;99.90;;;;;;4970993;28;20037;-72
2024/01/30 07:55:36;;;;;;;14.25;6.43;;;2.90;99.90;;;;;;4980491;28;20478;-72
2024/01/30 07:58:03;;;;;;;21.13;7.47;;;3.00;99.90;;;;;;4971195;28;20483;-71
2024/01/30 08:00:29;;;;;;;14.60;7.93;;;3.00;99.90;;;;;;4965583;28;20050;-71
2024/01/30 08:02:55;;;;;;;17.20;6.82;;;3.00;99.90;;;;;;4971617;28;20031;-71
2024/01/30 08:05:22;;;;;;;15.32;8.00;;;3.10;99.90;;;;;;4974496;28;20505;-71
2024/01/30 08:07:48;;;;;;;13.93;7.90;;;3.10;99.90;;;;;;4974911;28;20022;-71
2024/01/30 08:10:15;;;;;;;14.82;7.88;;;3.20;99.90;;;;;;4974401;28;20363;-71
2024/01/30 08:12:40;;;;;;;12.60;7.25;;;3.30;99.90;;;;;;4964647;28;20072;-71
2024/01/30 08:15:07;;;;;;;17.67;8.43;;;3.30;99.90;;;;;;4972530;28;20417;-73
2024/01/30 08:17:33;;;;;;;20.25;8.68;;;3.40;99.90;;;;;;4969175;28;20109;-72
2024/01/30 08:19:58;;;;;;;21.65;8.45;;;3.40;99.90;;;;;;4972970;28;20605;-70
2024/01/30 08:22:24;;;;;;;15.55;7.80;;;3.50;99.90;;;;;;4974673;28;20027;-72
2024/01/30 08:24:50;;;;;;;16.73;7.72;;;3.50;99.90;;;;;;4976480;28;20030;-72
2024/01/30 08:27:15;;;;;;;20.10;8.35;;;3.60;99.90;;;;;;4973194;28;20043;-71
2024/01/30 08:29:41;;;;;;;17.75;8.25;;;3.60;99.90;;;;;;4976138;28;20027;-71
2024/01/30 08:32:07;;;;;;;18.38;8.20;;;3.70;99.90;;;;;;4983458;28;20052;-71
2024/01/30 08:34:33;;;;;;;18.58;8.60;;;3.70;99.90;;;;;;4971867;28;20105;-72
2024/01/30 08:36:58;;;;;;;16.67;7.93;;;3.80;99.90;;;;;;4968717;28;20446;-72
2024/01/30 08:39:24;;;;;;;15.80;7.57;;;3.80;99.90;;;;;;4974979;28;20027;-73
2024/01/30 08:41:50;;;;;;;13.75;6.68;;;3.90;99.90;;;;;;4981880;28;20018;-73
2024/01/30 08:44:16;;;;;;;16.35;7.63;;;3.90;99.90;;;;;;4977990;28;20027;-71
2024/01/30 08:46:42;;;;;;;13.20;6.90;;;3.90;99.90;;;;;;4975441;28;20031;-72
2024/01/30 08:49:08;;;;;;;17.80;8.00;;;4.00;99.90;;;;;;4974643;28;20027;-73
2024/01/30 08:51:33;;;;;;;22.88;8.40;;;4.00;99.90;;;;;;4972196;28;20956;-73
2024/01/30 08:53:59;;;;;;;14.85;7.53;;;4.00;99.90;;;;;;4982003;28;20030;-72
2024/01/30 08:56:25;;;;;;;18.65;8.73;;;4.10;99.90;;;;;;4976244;28;20041;-73
2024/01/30 08:58:51;;;;;;;18.27;8.05;;;4.10;99.90;;;;;;4973612;28;20015;-72
2024/01/30 09:01:17;;;;;;;19.08;9.10;;;4.20;99.90;;;;;;4973167;28;20042;-72
2024/01/30 09:03:45;;;;;;;20.40;8.98;;;4.20;99.90;;;;;;4968267;28;20023;-72
2024/01/30 09:06:11;;;;;;;20.88;8.93;;;4.20;99.90;;;;;;4972786;28;20066;-73
2024/01/30 09:08:37;;;;;;;17.98;8.25;;;4.30;99.90;;;;;;4978800;28;20038;-72
2024/01/30 09:11:13;;;;;;;14.40;7.75;;;4.30;99.90;;;;;;4973641;28;20425;-72
2024/01/30 09:13:39;;;;;;;14.98;8.00;;;4.30;99.90;;;;;;4974238;28;20026;-72
2024/01/30 09:16:05;;;;;;;12.55;7.10;;;4.30;99.90;;;;;;4974340;28;20184;-72
2024/01/30 09:18:31;;;;;;;15.13;7.63;;;4.30;99.90;;;;;;4972123;28;20034;-71
2024/01/30 09:20:57;;;;;;;20.27;8.60;;;4.40;99.90;;;;;;4968950;28;20023;-73
2024/01/30 09:23:22;;;;;;;14.20;8.05;;;4.40;99.90;;;;;;4982928;28;20094;-72
2024/01/30 09:25:48;;;;;;;14.68;8.48;;;4.40;99.90;;;;;;4978836;28;20073;-72
2024/01/30 09:28:14;;;;;;;16.58;8.13;;;4.50;99.90;;;;;;4975073;28;20509;-72
2024/01/30 09:30:39;;;;;;;16.00;7.72;;;4.50;99.90;;;;;;4974023;28;20023;-72
2024/01/30 09:33:06;;;;;;;14.68;8.48;;;4.50;99.90;;;;;;4979600;28;20045;-73
2024/01/30 09:35:32;;;;;;;17.60;7.82;;;4.60;99.90;;;;;;4974858;28;20018;-73
2024/01/30 09:37:57;;;;;;;13.30;7.63;;;4.60;99.90;;;;;;4972325;28;20374;-72
2024/01/30 09:40:24;;;;;;;16.23;7.55;;;4.70;99.90;;;;;;4981353;28;20113;-73
2024/01/30 09:42:53;;;;;;;12.43;7.55;;;4.70;99.90;;;;;;4974369;28;20661;-72
2024/01/30 09:45:19;;;;;;;16.77;7.55;;;4.80;99.90;;;;;;4975886;28;20041;-71
2024/01/30 09:47:46;;;;;;;18.13;7.90;;;4.80;99.90;;;;;;4980940;28;20015;-72
2024/01/30 09:50:13;;;;;;;15.57;7.72;;;4.90;99.90;;;;;;4975102;28;20018;-73
2024/01/30 09:52:40;;;;;;;13.30;8.77;;;5.00;99.90;;;;;;4977530;28;20089;-72
2024/01/30 09:55:07;;;;;;;13.07;7.65;;;5.00;99.90;;;;;;4974938;28;20114;-73
2024/01/30 09:57:34;;;;;;;15.88;7.97;;;5.00;99.90;;;;;;4963465;28;20035;-73
2024/01/30 09:59:59;;;;;;;19.10;8.73;;;5.10;99.90;;;;;;4971505;28;20033;-73
2024/01/30 10:02:25;;;;;;;13.95;8.52;;;5.20;99.90;;;;;;4968090;28;20023;-73
2024/01/30 10:04:52;;;;;;;15.85;8.90;;;5.20;99.90;;;;;;4968764;28;20030;-73
2024/01/30 10:07:20;;;;;;;22.13;9.50;;;5.30;99.90;;;;;;4971857;28;20081;-72
2024/01/30 10:09:46;;;;;;;19.05;8.85;;;5.40;99.90;;;;;;4965859;28;20113;-72
2024/01/30 10:12:13;;;;;;;15.18;9.43;;;5.40;99.90;;;;;;4969227;28;20041;-73
2024/01/30 10:14:42;;;;;;;15.20;8.88;;;5.50;99.90;;;;;;4976634;28;20081;-72
2024/01/30 10:17:12;;;;;;;20.65;8.90;;;5.60;99.90;;;;;;4975908;28;20355;-72
2024/01/30 10:19:39;;;;;;;15.55;9.07;;;5.60;99.90;;;;;;4970346;28;20027;-72
2024/01/30 10:22:05;;;;;;;16.85;8.80;;;5.70;99.90;;;;;;4973301;28;20027;-73
2024/01/30 10:24:33;;;;;;;18.00;10.15;;;5.80;99.90;;;;;;4975550;28;20027;-73
2024/01/30 10:26:58;;;;;;;19.30;9.90;;;5.90;99.90;;;;;;4976765;28;20093;-72
2024/01/30 10:29:24;;;;;;;18.08;9.90;;;6.00;99.90;;;;;;4970707;28;20538;-72
2024/01/30 10:32:02;;;;;;;18.42;9.57;;;6.00;99.90;;;;;;4973077;28;20054;-72
2024/01/30 10:34:28;;;;;;;21.40;10.25;;;6.10;99.90;;;;;;4976555;28;20065;-72
2024/01/30 10:37:03;;;;;;;21.80;10.82;;;6.20;99.90;;;;;;4976753;28;20407;-71
2024/01/30 10:39:32;;;;;;;21.77;10.15;;;6.20;99.90;;;;;;4972578;28;20023;-73
2024/01/30 10:42:05;;;;;;;21.15;10.70;;;6.30;99.90;;;;;;4977474;28;20103;-72
2024/01/30 10:44:48;;;;;;;17.83;9.95;;;6.40;99.90;;;;;;4969860;28;20084;-71
2024/01/30 10:47:19;;;;;;;19.50;9.57;;;6.40;99.90;;;;;;4973494;28;20034;-73
2024/01/30 10:49:46;;;;;;;20.02;10.13;;;6.50;99.90;;;;;;4971979;28;20752;-72
2024/01/30 10:52:13;;;;;;;21.63;9.82;;;6.60;99.90;;;;;;4976019;28;20019;-72
2024/01/30 10:54:42;;;;;;;21.52;9.95;;;6.70;99.90;;;;;;4976355;28;20019;-71
2024/01/30 10:57:10;;;;;;;22.42;10.05;;;6.70;99.90;;;;;;4981987;28;20019;-72
2024/01/30 10:59:36;;;;;;;22.65;10.13;;;6.80;99.90;;;;;;4975622;28;20136;-72
2024/01/30 11:02:02;;;;;;;22.23;9.85;;;6.90;99.90;;;;;;4975243;28;20106;-73
2024/01/30 11:04:40;;;;;;;23.77;9.75;;;7.00;99.90;;;;;;4974070;28;20093;-73
2024/01/30 11:07:27;;;;;;;17.60;9.80;;;7.00;99.90;;;;;;4965811;28;20438;-73
2024/01/30 11:10:03;;;;;;;22.63;8.98;;;7.10;99.90;;;;;;4970225;28;20038;-73
2024/01/30 11:12:30;;;;;;;28.25;10.45;;;7.10;99.90;;;;;;4972398;28;20031;-73
2024/01/30 11:15:09;;;;;;;22.45;10.05;;;7.10;99.90;;;;;;4975556;28;20047;-72
2024/01/30 11:17:44;;;;;;;21.10;10.35;;;7.20;99.90;;;;;;4969566;28;20064;-72
2024/01/30 11:20:35;;;;;;;19.17;10.50;;;7.20;99.90;;;;;;4976855;28;20023;-72
2024/01/30 11:23:06;;;;;;;24.35;11.65;;;7.30;99.90;;;;;;4982518;28;20023;-72
2024/01/30 11:25:33;;;;;;;26.15;12.13;;;7.40;99.90;;;;;;4975641;28;20030;-71
2024/01/30 11:27:58;;;;;;;20.92;11.68;;;7.50;99.90;;;;;;4971691;28;20117;-72
2024/01/30 11:30:28;;;;;;;27.33;12.32;;;7.50;99.90;;;;;;4973920;28;20050;-72
2024/01/30 11:32:59;;;;;;;24.83;12.40;;;7.60;99.90;;;;;;4978074;28;20087;-73
2024/01/30 11:35:25;;;;;;;25.92;13.57;;;7.60;99.90;;;;;;4981566;28;20439;-73
2024/01/30 11:37:52;;;;;;;23.92;12.07;;;7.70;99.90;;;;;;4977975;28;20050;-73
2024/01/30 11:40:18;;;;;;;24.52;12.15;;;7.80;99.90;;;;;;4971880;28;20031;-73
2024/01/30 11:42:45;;;;;;;18.02;10.20;;;7.80;99.90;;;;;;4977884;28;20106;-71
2024/01/30 11:45:11;;;;;;;25.73;11.25;;;7.90;99.90;;;;;;4980073;28;20034;-73
2024/01/30 11:47:40;;;;;;;21.23;10.88;;;7.90;99.90;;;;;;4974395;28;20038;-72
2024/01/30 11:50:06;;;;;;;26.55;9.73;;;8.00;99.90;;;;;;4971375;28;20027;-73
2024/01/30 11:52:34;;;;;;;20.63;10.45;;;8.10;99.90;;;;;;4975173;28;20034;-74
2024/01/30 11:55:00;;;;;;;16.15;9.38;;;8.10;99.90;;;;;;4975676;28;20034;-73
2024/01/30 11:57:27;;;;;;;18.88;8.30;;;8.20;99.90;;;;;;4981149;28;20023;-73
2024/01/30 11:59:53;;;;;;;19.73;7.93;;;8.30;99.90;;;;;;4975561;28;20033;-74
2024/01/30 12:02:18;;;;;;;23.45;8.88;;;8.30;99.90;;;;;;4975615;28;20662;-72
2024/01/30 12:04:44;;;;;;;18.50;7.68;;;8.40;99.90;;;;;;4975399;28;20063;-74
2024/01/30 12:07:10;;;;;;;15.65;8.90;;;8.40;99.90;;;;;;4974177;28;20018;-74
2024/01/30 12:09:36;;;;;;;22.33;9.40;;;8.50;99.90;;;;;;4975727;28;20394;-74
2024/01/30 12:12:01;;;;;;;17.02;7.95;;;8.50;99.90;;;;;;4975376;28;20023;-73
2024/01/30 12:14:27;;;;;;;13.85;6.70;;;8.60;99.90;;;;;;4984760;28;20034;-74
2024/01/30 12:16:53;;;;;;;10.02;5.95;;;8.60;99.90;;;;;;4986874;28;20131;-74
2024/01/30 12:19:25;;;;;;;10.80;5.10;;;8.70;99.90;;;;;;4984824;28;20410;-73
2024/01/30 12:21:58;;;;;;;9.90;4.70;;;8.80;99.90;;;;;;4974987;28;20490;-74
2024/01/30 12:24:30;;;;;;;11.13;4.80;;;8.80;99.90;;;;;;4982780;28;20027;-73
2024/01/30 12:27:00;;;;;;;10.00;4.43;;;8.90;99.90;;;;;;4976107;28;20502;-74
2024/01/30 12:29:26;;;;;;;7.20;4.10;;;8.90;99.90;;;;;;4972518;28;20019;-74
2024/01/30 12:31:54;;;;;;;8.32;3.92;;;9.00;99.90;;;;;;4974717;28;20030;-74
2024/01/30 12:34:20;;;;;;;5.75;3.03;;;9.00;99.90;;;;;;4977417;28;20522;-73
2024/01/30 12:36:48;;;;;;;6.95;3.28;;;9.10;99.90;;;;;;4977116;28;20457;-74
2024/01/30 12:39:15;;;;;;;8.13;3.97;;;9.20;99.90;;;;;;4971639;28;20501;-73
2024/01/30 12:41:40;;;;;;;7.40;3.63;;;9.20;99.90;;;;;;4972296;28;20111;-72